Wilmington, NC

4:27 PM EDT on September 30, 2014 (GMT -0400)
Olde Well Loop | Change Station
CLOSE
Current Station
Personal Weather Station
Location: Wilmington, NC
Elevation: 39 ft
Nearby Weather Stations

Elev 39 ft 34.27 °N, 77.84 °W | Updated 1 second ago

Partly Cloudy
Partly Cloudy
80.8 °F
Feels Like 84 °F
N
0.0
Wind Variable Wind from NNE
Gusts 0.0 mph

Today
High -- | Low -- °F
--% Chance of Precip.
Yesterday
High -- | Low -- °F
Precip. -- in
7:05 AM 6:56 PM
Waxing Crescent, 40% visible
Pressure 29.82 in
Visibility 10.0 miles
Clouds Scattered Clouds 4000 ft
Heat Index 84 °F
Dew Point 68 °F
Humidity 65%
Rainfall 0.00 in
Snow Depth Not available.
UV 3 out of 12
Pollen 4.30 out of 12
Air Quality Not available.
Flu Activity Not available.
METAR KILM 301953Z 03006KT 10SM SCT040 28/18 A2982 RMK AO2 SLP098 T02780178

More Conditions Fewer Conditions

Pressure 29.82 in
Visibility 10.0 miles
Clouds Scattered Clouds 4000 ft
Heat Index 84 °F
Dew Point 68 °F
Humidity 65%
Rainfall 0.00 in
Snow Depth Not available.
UV 3 out of 12
Pollen 4.30 out of 12
Air Quality Not available.
Flu Activity Not available.
METAR KILM 301953Z 03006KT 10SM SCT040 28/18 A2982 RMK AO2 SLP098 T02780178

More Conditions Fewer Conditions

10-Day Weather Forecast

Almanac

Astronomy

Sep. 30, 2014 Rise Set
Actual Time 7:05 AM EDT 6:56 PM EDT
Civil Twilight 6:40 AM EDT 7:21 PM EDT
Nautical Twilight 6:11 AM EDT 7:50 PM EDT
Astronomical Twilight 5:41 AM EDT 8:20 PM EDT
Moon 12:59 PM EDT 11:36 PM EDT
Length of Visible Light 12h 41m
Length of Day
11h 51m
Tomorrow will be 2m 7s shorter.
Waxing Crescent, 40% of the Moon is Illuminated
Today
Waxing Crescent
Oct 1
First Quarter
Oct 8
Full
Oct 15
Last Quarter
Oct 23
New

Today's Extremes

State Highs State Lows

Community

WunderPhotos

Upload Photos

1,757,740 photos uploaded!

Nearby

Snow Depth

Station Depth Elevation
No new snow has been reported.

Earthquake Activity

City Distance Mag. Time & Date
No recent earthquake activity has been reported nearby.
Minimum magnitude displayed is 2.5.

Coastal Water Temperatures

Place Temperature
Johnny Mercer Pier, Wrightsville Beach, NC 78.1 °F
Beaufort, NC 75.0 °F
Springmaid Pier, SC 75.9 °F

Nearby Weather Stations